createdAt,value
2018-06-03T00:02:35.146Z,74.50
2018-06-03T00:05:37.793Z,74.50
2018-06-03T00:08:41.233Z,74.20
2018-06-03T00:11:43.798Z,74.20
2018-06-03T00:14:46.399Z,74.10
2018-06-03T00:17:48.976Z,73.90
2018-06-03T00:25:10.911Z,74.10
2018-06-03T00:28:16.337Z,73.80
2018-06-03T00:31:20.549Z,73.60
2018-06-03T00:34:24.899Z,74.00
2018-06-03T00:37:29.135Z,74.00
2018-06-03T00:40:33.630Z,74.40
2018-06-03T00:43:37.913Z,74.40
2018-06-03T00:46:42.264Z,74.80
2018-06-03T00:49:46.476Z,74.90
2018-06-03T00:52:50.834Z,74.60
2018-06-03T00:55:55.004Z,74.80
2018-06-03T00:58:59.348Z,75.40
2018-06-03T01:02:03.558Z,75.40
2018-06-03T01:05:07.872Z,75.60
2018-06-03T01:08:12.407Z,75.60
2018-06-03T01:11:16.793Z,75.40
2018-06-03T01:14:21.209Z,75.90
2018-06-03T01:17:25.540Z,76.50
2018-06-03T01:20:29.912Z,76.50
2018-06-03T01:23:34.126Z,76.50
2018-06-03T01:26:38.461Z,76.40
2018-06-03T01:29:42.770Z,76.10
2018-06-03T01:32:46.980Z,75.90
2018-06-03T01:35:51.348Z,76.00
2018-06-03T01:38:55.531Z,75.90
2018-06-03T01:41:59.861Z,76.40
2018-06-03T01:45:04.227Z,76.80
2018-06-03T01:48:09.042Z,76.70
2018-06-03T01:51:13.469Z,77.10
2018-06-03T01:54:17.834Z,76.90
2018-06-03T01:57:22.133Z,77.30
2018-06-03T02:00:26.473Z,77.30
2018-06-03T02:03:31.477Z,77.50
2018-06-03T02:06:35.749Z,77.70
2018-06-03T02:09:39.955Z,77.50
2018-06-03T02:12:44.102Z,77.50
2018-06-03T02:15:48.293Z,77.00
2018-06-03T02:18:52.632Z,77.00
2018-06-03T02:21:57.139Z,77.30
2018-06-03T02:25:01.359Z,76.90
2018-06-03T02:28:05.673Z,76.50
2018-06-03T02:31:10.044Z,76.60
2018-06-03T02:34:14.352Z,76.30
2018-06-03T02:37:18.745Z,76.50
2018-06-03T02:40:23.083Z,76.20
2018-06-03T02:43:27.376Z,77.00
2018-06-03T02:46:31.885Z,76.20
2018-06-03T02:49:36.347Z,76.00
2018-06-03T02:52:40.606Z,76.30
2018-06-03T02:55:45.065Z,76.20
2018-06-03T02:58:49.560Z,76.20
2018-06-03T03:01:53.770Z,76.00
2018-06-03T03:04:57.960Z,76.10
2018-06-03T03:08:02.304Z,75.80
2018-06-03T03:11:06.690Z,75.80
2018-06-03T03:14:11.155Z,75.50
2018-06-03T03:17:15.491Z,75.90
2018-06-03T03:20:19.813Z,75.80
2018-06-03T03:23:23.994Z,76.10
2018-06-03T03:26:28.266Z,76.20
2018-06-03T03:29:32.430Z,76.40
2018-06-03T03:32:36.712Z,76.40
2018-06-03T03:35:40.896Z,76.30
2018-06-03T03:38:45.779Z,76.00
2018-06-03T03:41:50.266Z,76.20
2018-06-03T03:44:54.538Z,76.10
2018-06-03T03:47:58.896Z,76.00
2018-06-03T03:51:04.219Z,76.10
2018-06-03T03:54:08.463Z,76.10
2018-06-03T03:57:12.762Z,75.80
2018-06-03T04:00:17.175Z,75.70
2018-06-03T04:03:21.566Z,75.50
2018-06-03T04:06:25.966Z,75.70
2018-06-03T04:09:30.295Z,75.30
2018-06-03T04:12:34.463Z,75.00
2018-06-03T04:15:38.659Z,74.10
2018-06-03T04:18:42.908Z,73.70
2018-06-03T04:21:47.342Z,73.60
2018-06-03T04:24:51.687Z,73.10
2018-06-03T04:27:56.801Z,72.40
2018-06-03T04:31:01.156Z,71.20
2018-06-03T04:34:05.435Z,70.50
2018-06-03T04:37:09.598Z,69.90
2018-06-03T04:40:13.832Z,69.00
2018-06-03T04:43:18.247Z,69.00
2018-06-03T04:46:22.412Z,68.80
2018-06-03T04:49:26.742Z,68.70
2018-06-03T04:52:31.069Z,67.80
2018-06-03T04:55:35.401Z,67.40
2018-06-03T04:58:39.685Z,68.00
2018-06-03T05:01:44.037Z,67.30
2018-06-03T05:04:48.361Z,66.80
2018-06-03T05:07:52.842Z,66.70
2018-06-03T05:10:57.322Z,65.70
2018-06-03T05:14:01.552Z,66.10
2018-06-03T05:17:05.926Z,66.50
2018-06-03T05:20:10.287Z,66.20
2018-06-03T05:23:14.723Z,66.90
2018-06-03T05:26:19.199Z,67.10
2018-06-03T05:29:23.362Z,67.70
2018-06-03T05:32:27.637Z,67.90
2018-06-03T05:35:31.788Z,67.40
2018-06-03T05:38:36.107Z,67.10
2018-06-03T05:41:40.390Z,66.50
2018-06-03T05:44:44.393Z,66.90
2018-06-03T05:47:48.913Z,67.00
2018-06-03T05:50:53.307Z,66.40
2018-06-03T05:53:57.718Z,66.50
2018-06-03T05:57:02.029Z,66.00
2018-06-03T06:00:06.314Z,66.00
2018-06-03T06:03:10.632Z,65.60
2018-06-03T06:06:15.014Z,65.20
2018-06-03T06:09:19.379Z,64.70
2018-06-03T06:12:23.694Z,64.60
2018-06-03T06:15:27.923Z,64.50
2018-06-03T06:18:32.241Z,63.30
2018-06-03T06:21:36.625Z,63.20
2018-06-03T06:24:40.772Z,63.20
2018-06-03T06:27:44.998Z,63.10
2018-06-03T06:30:49.309Z,63.30
2018-06-03T06:33:53.765Z,62.60
2018-06-03T06:36:58.104Z,61.20
2018-06-03T06:40:02.383Z,60.60
2018-06-03T06:43:06.713Z,60.00
2018-06-03T06:46:11.157Z,57.90
2018-06-03T06:49:15.471Z,55.80
2018-06-03T06:52:19.791Z,52.40
2018-06-03T06:55:24.170Z,49.60
2018-06-03T06:58:28.981Z,49.70
2018-06-03T07:01:33.339Z,50.10
2018-06-03T07:04:37.773Z,49.90
2018-06-03T07:07:42.355Z,50.80
2018-06-03T07:10:47.109Z,51.10
2018-06-03T07:13:51.390Z,51.10
2018-06-03T07:16:55.707Z,50.80
2018-06-03T07:20:00.119Z,51.50
2018-06-03T07:23:04.414Z,51.60
2018-06-03T07:26:08.879Z,49.70
2018-06-03T07:29:13.251Z,45.70
2018-06-03T07:32:17.704Z,41.90
2018-06-03T07:35:22.073Z,41.90
2018-06-03T07:38:26.273Z,42.30
2018-06-03T07:41:30.555Z,43.70
2018-06-03T07:44:34.931Z,43.80
2018-06-03T07:47:42.036Z,41.70
2018-06-03T07:50:46.319Z,39.50
2018-06-03T07:53:50.463Z,38.40
2018-06-03T07:56:54.644Z,38.20
2018-06-03T07:59:58.877Z,38.50
2018-06-03T08:03:03.479Z,38.80
2018-06-03T08:06:07.783Z,39.40
2018-06-03T08:09:12.353Z,40.50
2018-06-03T08:12:16.680Z,41.60
2018-06-03T08:15:21.105Z,42.00
2018-06-03T08:18:25.413Z,42.60
2018-06-03T08:21:29.604Z,42.60
2018-06-03T08:24:34.083Z,43.00
2018-06-03T08:27:38.362Z,42.10
2018-06-03T08:30:42.693Z,41.60
2018-06-03T08:33:47.041Z,42.20
2018-06-03T08:36:51.363Z,42.40
2018-06-03T08:39:55.551Z,41.60
2018-06-03T08:42:59.871Z,41.50
2018-06-03T08:46:04.315Z,40.80
2018-06-03T08:49:08.567Z,40.60
2018-06-03T08:55:16.684Z,41.50
2018-06-03T08:58:21.187Z,42.50
2018-06-03T09:01:25.419Z,43.30
2018-06-03T09:04:30.052Z,43.40
2018-06-03T09:07:34.389Z,42.60
2018-06-03T09:10:38.701Z,43.10
2018-06-03T09:13:43.184Z,42.40
2018-06-03T09:16:47.523Z,40.30
2018-06-03T09:19:51.873Z,42.00
2018-06-03T09:22:56.210Z,39.50
2018-06-03T09:26:00.370Z,40.10
2018-06-03T09:29:04.892Z,41.20
2018-06-03T09:32:09.445Z,39.40
2018-06-03T09:35:13.822Z,39.30
2018-06-03T09:38:18.103Z,36.70
2018-06-03T09:41:23.111Z,34.90
2018-06-03T09:44:27.374Z,37.10
2018-06-03T09:47:31.835Z,37.40
2018-06-03T09:50:36.221Z,36.80
2018-06-03T09:53:40.495Z,37.70
2018-06-03T09:56:44.803Z,37.10
2018-06-03T09:59:49.147Z,35.60
2018-06-03T10:02:53.567Z,35.10
2018-06-03T10:05:57.878Z,35.10
2018-06-03T10:09:02.316Z,34.90
2018-06-03T10:12:06.697Z,35.10
2018-06-03T10:15:10.913Z,35.80
2018-06-03T10:18:15.134Z,35.20
2018-06-03T10:21:19.572Z,35.60
2018-06-03T10:24:23.732Z,36.10
2018-06-03T10:27:28.022Z,35.30
2018-06-03T10:30:32.542Z,36.80
2018-06-03T10:33:36.808Z,37.10
2018-06-03T10:36:41.136Z,38.00
2018-06-03T10:39:45.466Z,37.70
2018-06-03T10:42:50.075Z,37.80
2018-06-03T10:45:54.512Z,36.80
2018-06-03T10:48:58.795Z,36.30
2018-06-03T10:52:03.054Z,35.80
2018-06-03T10:55:07.721Z,35.80
2018-06-03T10:58:11.917Z,35.60
2018-06-03T11:01:16.403Z,36.10
2018-06-03T11:04:20.858Z,34.90
2018-06-03T11:07:25.415Z,35.10
2018-06-03T11:10:29.794Z,35.30
2018-06-03T11:13:34.124Z,37.00
2018-06-03T11:16:38.880Z,36.80
2018-06-03T11:19:43.315Z,36.20
2018-06-03T11:22:47.483Z,35.70
2018-06-03T11:25:51.877Z,34.70
2018-06-03T11:28:56.132Z,35.90
2018-06-03T11:32:00.451Z,36.10
2018-06-03T11:35:05.171Z,34.80
2018-06-03T11:38:09.623Z,35.30
2018-06-03T11:41:13.725Z,36.30
2018-06-03T11:44:17.964Z,37.00
2018-06-03T11:47:22.431Z,37.20
2018-06-03T11:50:26.702Z,34.90
2018-06-03T11:53:31.057Z,35.30
2018-06-03T11:57:07.208Z,36.40
2018-06-03T12:00:11.518Z,35.50
2018-06-03T12:03:15.814Z,33.70
2018-06-03T12:06:20.524Z,33.60
2018-06-03T12:09:24.895Z,33.50
2018-06-03T12:12:29.236Z,34.30
2018-06-03T12:15:33.538Z,34.20
2018-06-03T12:18:37.830Z,34.50
2018-06-03T12:21:42.148Z,35.50
2018-06-03T12:24:46.527Z,35.40
2018-06-03T12:27:50.881Z,35.30
2018-06-03T12:30:55.006Z,34.70
2018-06-03T12:33:59.189Z,34.90
2018-06-03T12:37:03.489Z,34.80
2018-06-03T12:40:07.918Z,34.40
2018-06-03T12:43:12.348Z,35.10
2018-06-03T12:46:16.767Z,35.60
2018-06-03T12:49:20.975Z,35.90
2018-06-03T12:52:25.261Z,35.30
2018-06-03T12:55:29.455Z,35.50
2018-06-03T12:58:33.782Z,34.50
2018-06-03T13:01:38.185Z,34.20
2018-06-03T13:04:42.249Z,33.90
2018-06-03T13:10:50.212Z,34.80
2018-06-03T13:13:54.635Z,35.20
2018-06-03T13:16:59.020Z,35.40
2018-06-03T13:20:03.453Z,35.40
2018-06-03T13:23:07.683Z,36.40
2018-06-03T13:26:11.975Z,35.00
2018-06-03T13:29:16.398Z,34.00
2018-06-03T13:32:20.680Z,33.20
2018-06-03T13:35:25.049Z,34.10
2018-06-03T13:38:29.180Z,33.50
2018-06-03T13:41:33.373Z,34.80
2018-06-03T13:44:37.548Z,34.40
2018-06-03T13:47:41.919Z,35.50
2018-06-03T13:50:46.168Z,37.30
2018-06-03T13:53:50.564Z,38.40
2018-06-03T13:56:54.958Z,39.50
2018-06-03T13:59:59.295Z,39.60
2018-06-03T14:03:03.475Z,39.70
2018-06-03T14:06:07.811Z,40.20
2018-06-03T14:09:12.121Z,40.00
2018-06-03T14:12:16.482Z,39.40
2018-06-03T14:15:20.937Z,39.70
2018-06-03T14:18:25.118Z,39.80
2018-06-03T14:21:29.333Z,41.50
2018-06-03T14:24:33.491Z,43.60
2018-06-03T14:27:37.754Z,43.80
2018-06-03T14:30:42.002Z,46.60
2018-06-03T14:33:46.277Z,46.80
2018-06-03T14:36:50.664Z,48.10
2018-06-03T14:39:54.913Z,48.50
2018-06-03T14:42:59.164Z,48.50
2018-06-03T14:46:03.765Z,46.90
2018-06-03T14:49:07.971Z,45.90
2018-06-03T14:52:12.568Z,46.40
2018-06-03T14:55:16.894Z,46.40
2018-06-03T14:58:21.111Z,45.70
2018-06-03T15:01:25.595Z,45.70
2018-06-03T15:04:29.838Z,46.80
2018-06-03T15:07:34.314Z,47.60
2018-06-03T15:10:38.689Z,48.30
2018-06-03T15:13:43.467Z,49.30
2018-06-03T15:16:48.170Z,49.80
2018-06-03T15:19:52.618Z,49.70
2018-06-03T15:22:56.871Z,50.30
2018-06-03T15:26:01.144Z,50.90
2018-06-03T15:29:06.552Z,52.00
2018-06-03T15:32:10.893Z,52.30
2018-06-03T15:35:15.258Z,53.00
2018-06-03T15:38:19.648Z,53.80
2018-06-03T15:41:24.044Z,53.90
2018-06-03T15:44:28.528Z,54.60
2018-06-03T15:47:32.851Z,53.60
2018-06-03T15:50:37.328Z,53.60
2018-06-03T15:53:41.748Z,52.50
2018-06-03T15:56:46.602Z,52.90
2018-06-03T15:59:50.954Z,52.80
2018-06-03T16:02:55.305Z,52.60
2018-06-03T16:05:59.611Z,52.80
2018-06-03T16:09:04.124Z,53.40
2018-06-03T16:12:08.566Z,53.60
2018-06-03T16:15:13.027Z,52.70
2018-06-03T16:18:17.301Z,53.20
2018-06-03T16:21:21.904Z,52.90
2018-06-03T16:24:26.204Z,53.10
2018-06-03T16:27:30.624Z,53.10
2018-06-03T16:30:35.057Z,53.20
2018-06-03T16:33:39.090Z,53.00
2018-06-03T16:36:43.318Z,52.50
2018-06-03T16:39:53.981Z,52.20
2018-06-03T16:42:58.330Z,51.80
2018-06-03T16:46:03.435Z,51.90
2018-06-03T16:49:07.688Z,52.50
2018-06-03T16:52:12.027Z,52.20
2018-06-03T16:55:16.330Z,52.20
2018-06-03T16:58:20.595Z,52.60
2018-06-03T17:01:25.036Z,53.50
2018-06-03T17:04:29.373Z,54.10
2018-06-03T17:07:33.947Z,54.10
2018-06-03T17:10:38.424Z,53.30
2018-06-03T17:13:42.749Z,53.20
2018-06-03T17:16:47.091Z,54.10
2018-06-03T17:19:51.374Z,54.80
2018-06-03T17:22:55.729Z,55.20
2018-06-03T17:25:59.989Z,55.80
2018-06-03T17:29:04.297Z,57.20
2018-06-03T17:32:08.525Z,56.90
2018-06-03T17:35:12.810Z,56.40
2018-06-03T17:38:17.265Z,55.90
2018-06-03T17:41:21.591Z,55.50
2018-06-03T17:44:25.935Z,55.30
2018-06-03T17:47:30.144Z,55.10
2018-06-03T17:50:34.439Z,55.10
2018-06-03T17:53:38.866Z,55.50
2018-06-03T17:56:43.196Z,55.70
2018-06-03T17:59:47.490Z,56.40
2018-06-03T18:02:51.703Z,57.10
2018-06-03T18:05:56.131Z,57.60
2018-06-03T18:09:00.493Z,58.00
2018-06-03T18:12:04.659Z,58.30
2018-06-03T18:15:09.035Z,58.60
2018-06-03T18:18:13.214Z,59.00
2018-06-03T18:21:17.330Z,59.50
2018-06-03T18:24:21.729Z,60.10
2018-06-03T18:27:26.074Z,60.70
2018-06-03T18:30:30.295Z,61.20
2018-06-03T18:33:34.486Z,61.60
2018-06-03T18:36:39.008Z,62.20
2018-06-03T18:39:43.570Z,62.70
2018-06-03T18:42:48.013Z,63.00
2018-06-03T18:45:52.323Z,64.00
2018-06-03T18:48:56.540Z,64.60
2018-06-03T18:52:00.980Z,65.00
2018-06-03T18:55:05.703Z,65.30
2018-06-03T18:58:10.010Z,66.00
2018-06-03T19:01:14.382Z,66.20
2018-06-03T19:04:18.920Z,66.50
2018-06-03T19:07:23.501Z,66.70
2018-06-03T19:10:28.208Z,66.30
2018-06-03T19:13:32.675Z,67.30
2018-06-03T19:16:37.053Z,66.60
2018-06-03T19:19:41.575Z,66.40
2018-06-03T19:22:45.947Z,66.30
2018-06-03T19:25:50.350Z,66.40
2018-06-03T19:28:54.648Z,66.50
2018-06-03T19:31:58.874Z,66.40
2018-06-03T19:35:03.279Z,67.30
2018-06-03T19:38:07.672Z,66.30
2018-06-03T19:41:12.500Z,66.30
2018-06-03T19:44:17.214Z,66.20
2018-06-03T19:47:21.802Z,66.30
2018-06-03T19:50:30.240Z,66.40
2018-06-03T19:53:34.653Z,66.80
2018-06-03T19:56:39.011Z,66.90
2018-06-03T19:59:43.472Z,66.10
2018-06-03T20:02:47.944Z,66.20
2018-06-03T20:05:52.141Z,66.30
2018-06-03T20:08:56.840Z,66.90
2018-06-03T20:12:01.603Z,67.50
2018-06-03T20:15:06.071Z,67.80
2018-06-03T20:18:10.463Z,67.60
2018-06-03T20:21:14.947Z,67.00
2018-06-03T20:24:19.108Z,67.10
2018-06-03T20:27:24.442Z,67.00
2018-06-03T20:30:28.824Z,67.00
2018-06-03T20:33:33.131Z,67.00
2018-06-03T20:36:37.827Z,66.90
2018-06-03T20:39:42.157Z,68.10
2018-06-03T20:42:46.660Z,67.30
2018-06-03T20:45:51.571Z,67.60
2018-06-03T20:48:55.841Z,67.70
2018-06-03T20:52:00.141Z,68.10
2018-06-03T20:55:04.401Z,68.30
2018-06-03T20:58:08.818Z,68.50
2018-06-03T21:01:14.279Z,68.80
2018-06-03T21:04:18.732Z,68.90
2018-06-03T21:07:23.101Z,68.80
2018-06-03T21:10:27.418Z,68.80
2018-06-03T21:13:32.494Z,68.50
2018-06-03T21:16:36.696Z,68.40
2018-06-03T21:19:41.090Z,68.60
2018-06-03T21:22:45.267Z,68.60
2018-06-03T21:25:49.670Z,68.50
2018-06-03T21:28:53.971Z,68.60
2018-06-03T21:31:58.379Z,68.40
2018-06-03T21:35:02.519Z,67.90
2018-06-03T21:38:06.709Z,67.80
2018-06-03T21:41:11.129Z,67.60
2018-06-03T21:47:19.265Z,67.80
2018-06-03T21:50:23.525Z,67.80
2018-06-03T21:53:27.950Z,67.80
2018-06-03T21:56:32.441Z,67.80
2018-06-03T21:59:36.995Z,67.70
2018-06-03T22:02:41.496Z,67.80
2018-06-03T22:05:46.000Z,68.30
2018-06-03T22:08:50.205Z,67.90
2018-06-03T22:11:54.631Z,68.00
2018-06-03T22:14:58.852Z,68.30
2018-06-03T22:18:03.264Z,68.50
2018-06-03T22:21:07.356Z,68.60
2018-06-03T22:24:11.642Z,68.80
2018-06-03T22:30:19.963Z,69.20
2018-06-03T22:33:24.469Z,69.50
2018-06-03T22:36:28.787Z,69.60
2018-06-03T22:39:32.871Z,69.40
2018-06-03T22:42:37.151Z,69.30
2018-06-03T22:45:41.571Z,69.50
2018-06-03T22:48:45.874Z,69.60
2018-06-03T22:51:50.189Z,69.10
2018-06-03T22:54:54.410Z,69.00
2018-06-03T22:57:58.631Z,69.50
2018-06-03T23:01:02.933Z,69.80
2018-06-03T23:04:07.289Z,69.60
2018-06-03T23:07:11.572Z,69.70
2018-06-03T23:10:16.006Z,69.80
2018-06-03T23:13:20.505Z,70.00
2018-06-03T23:16:25.066Z,70.30
2018-06-03T23:19:29.524Z,70.60
2018-06-03T23:22:33.868Z,70.90
2018-06-03T23:25:38.397Z,71.00
2018-06-03T23:28:42.729Z,71.00
2018-06-03T23:31:47.116Z,70.80
2018-06-03T23:34:51.398Z,71.90
2018-06-03T23:37:56.381Z,71.40
2018-06-03T23:41:00.786Z,71.30
2018-06-03T23:44:05.028Z,71.10
2018-06-03T23:47:08.982Z,71.00
2018-06-03T23:50:12.893Z,71.30
2018-06-03T23:53:17.098Z,71.50
2018-06-03T23:56:21.441Z,71.60
2018-06-03T23:59:25.774Z,71.50
